sensor_id;sensor_type;location;lat;lon;timestamp;P1;durP1;ratioP1;P2;durP2;ratioP2
20449;SDS011;10384;51.940;8.432;2022-12-18T00:00:42;25.13;;;10.73;;
20449;SDS011;10384;51.940;8.432;2022-12-18T00:03:08;27.43;;;8.87;;
20449;SDS011;10384;51.940;8.432;2022-12-18T00:05:35;14.60;;;7.73;;
20449;SDS011;10384;51.940;8.432;2022-12-18T00:08:01;20.13;;;8.47;;
20449;SDS011;10384;51.940;8.432;2022-12-18T00:10:27;18.93;;;8.13;;
20449;SDS011;10384;51.940;8.432;2022-12-18T00:12:53;16.97;;;9.13;;
20449;SDS011;10384;51.940;8.432;2022-12-18T00:15:19;19.70;;;7.90;;
20449;SDS011;10384;51.940;8.432;2022-12-18T00:17:45;17.73;;;7.60;;
20449;SDS011;10384;51.940;8.432;2022-12-18T00:20:12;19.27;;;8.40;;
20449;SDS011;10384;51.940;8.432;2022-12-18T00:22:37;19.07;;;6.53;;
20449;SDS011;10384;51.940;8.432;2022-12-18T00:25:04;15.87;;;6.13;;
20449;SDS011;10384;51.940;8.432;2022-12-18T00:27:30;15.67;;;6.83;;
20449;SDS011;10384;51.940;8.432;2022-12-18T00:29:55;18.33;;;6.07;;
20449;SDS011;10384;51.940;8.432;2022-12-18T00:32:21;22.50;;;7.80;;
20449;SDS011;10384;51.940;8.432;2022-12-18T00:34:47;15.20;;;6.03;;
20449;SDS011;10384;51.940;8.432;2022-12-18T00:37:13;15.80;;;7.00;;
20449;SDS011;10384;51.940;8.432;2022-12-18T00:39:39;12.30;;;6.13;;
20449;SDS011;10384;51.940;8.432;2022-12-18T00:42:05;13.33;;;5.83;;
20449;SDS011;10384;51.940;8.432;2022-12-18T00:44:50;18.50;;;7.80;;
20449;SDS011;10384;51.940;8.432;2022-12-18T00:47:16;13.47;;;5.70;;
20449;SDS011;10384;51.940;8.432;2022-12-18T00:49:42;13.67;;;6.83;;
20449;SDS011;10384;51.940;8.432;2022-12-18T00:52:07;14.77;;;6.43;;
20449;SDS011;10384;51.940;8.432;2022-12-18T00:54:33;11.87;;;5.73;;
20449;SDS011;10384;51.940;8.432;2022-12-18T00:56:59;16.33;;;5.77;;
20449;SDS011;10384;51.940;8.432;2022-12-18T00:59:25;15.37;;;6.17;;
20449;SDS011;10384;51.940;8.432;2022-12-18T01:01:51;19.30;;;6.27;;
20449;SDS011;10384;51.940;8.432;2022-12-18T01:04:17;11.67;;;5.87;;
20449;SDS011;10384;51.940;8.432;2022-12-18T01:06:43;11.43;;;4.90;;
20449;SDS011;10384;51.940;8.432;2022-12-18T01:09:09;12.50;;;5.63;;
20449;SDS011;10384;51.940;8.432;2022-12-18T01:11:35;13.57;;;5.13;;
20449;SDS011;10384;51.940;8.432;2022-12-18T01:14:01;11.80;;;5.07;;
20449;SDS011;10384;51.940;8.432;2022-12-18T01:16:27;10.87;;;4.73;;
20449;SDS011;10384;51.940;8.432;2022-12-18T01:18:53;11.63;;;5.33;;
20449;SDS011;10384;51.940;8.432;2022-12-18T01:21:20;9.73;;;5.07;;
20449;SDS011;10384;51.940;8.432;2022-12-18T01:23:46;11.63;;;4.67;;
20449;SDS011;10384;51.940;8.432;2022-12-18T01:26:13;9.27;;;4.20;;
20449;SDS011;10384;51.940;8.432;2022-12-18T01:28:40;13.57;;;4.80;;
20449;SDS011;10384;51.940;8.432;2022-12-18T01:31:19;13.63;;;4.93;;
20449;SDS011;10384;51.940;8.432;2022-12-18T01:33:48;14.43;;;5.03;;
20449;SDS011;10384;51.940;8.432;2022-12-18T01:36:15;8.77;;;4.03;;
20449;SDS011;10384;51.940;8.432;2022-12-18T01:38:41;14.00;;;5.00;;
20449;SDS011;10384;51.940;8.432;2022-12-18T01:41:07;10.27;;;4.33;;
20449;SDS011;10384;51.940;8.432;2022-12-18T01:43:41;9.90;;;4.97;;
20449;SDS011;10384;51.940;8.432;2022-12-18T01:46:07;15.30;;;5.37;;
20449;SDS011;10384;51.940;8.432;2022-12-18T01:48:33;9.33;;;3.60;;
20449;SDS011;10384;51.940;8.432;2022-12-18T01:50:59;5.87;;;3.53;;
20449;SDS011;10384;51.940;8.432;2022-12-18T01:53:25;14.80;;;5.27;;
20449;SDS011;10384;51.940;8.432;2022-12-18T01:55:53;13.70;;;4.33;;
20449;SDS011;10384;51.940;8.432;2022-12-18T01:58:20;10.70;;;4.73;;
20449;SDS011;10384;51.940;8.432;2022-12-18T02:00:47;8.13;;;3.73;;
20449;SDS011;10384;51.940;8.432;2022-12-18T02:03:13;10.17;;;3.70;;
20449;SDS011;10384;51.940;8.432;2022-12-18T02:11:05;10.27;;;4.13;;
20449;SDS011;10384;51.940;8.432;2022-12-18T02:16:01;9.50;;;3.70;;
20449;SDS011;10384;51.940;8.432;2022-12-18T02:18:32;9.67;;;4.53;;
20449;SDS011;10384;51.940;8.432;2022-12-18T02:28:49;6.93;;;3.70;;
20449;SDS011;10384;51.940;8.432;2022-12-18T02:31:18;8.27;;;3.77;;
20449;SDS011;10384;51.940;8.432;2022-12-18T02:33:47;8.07;;;3.50;;
20449;SDS011;10384;51.940;8.432;2022-12-18T02:36:14;7.87;;;3.83;;
20449;SDS011;10384;51.940;8.432;2022-12-18T02:38:42;5.50;;;3.23;;
20449;SDS011;10384;51.940;8.432;2022-12-18T02:41:08;6.17;;;3.50;;
20449;SDS011;10384;51.940;8.432;2022-12-18T02:43:35;5.93;;;2.83;;
20449;SDS011;10384;51.940;8.432;2022-12-18T02:46:20;7.67;;;3.63;;
20449;SDS011;10384;51.940;8.432;2022-12-18T02:48:47;8.87;;;4.10;;
20449;SDS011;10384;51.940;8.432;2022-12-18T02:51:17;8.40;;;3.23;;
20449;SDS011;10384;51.940;8.432;2022-12-18T02:53:49;4.37;;;2.90;;
20449;SDS011;10384;51.940;8.432;2022-12-18T02:56:17;8.07;;;3.43;;
20449;SDS011;10384;51.940;8.432;2022-12-18T02:58:47;6.00;;;3.00;;
20449;SDS011;10384;51.940;8.432;2022-12-18T03:01:19;9.40;;;3.47;;
20449;SDS011;10384;51.940;8.432;2022-12-18T03:03:50;7.73;;;3.33;;
20449;SDS011;10384;51.940;8.432;2022-12-18T03:06:24;5.50;;;2.80;;
20449;SDS011;10384;51.940;8.432;2022-12-18T03:08:54;9.80;;;3.17;;
20449;SDS011;10384;51.940;8.432;2022-12-18T03:11:25;5.77;;;2.70;;
20449;SDS011;10384;51.940;8.432;2022-12-18T03:14:11;9.20;;;3.03;;
20449;SDS011;10384;51.940;8.432;2022-12-18T03:16:39;7.73;;;3.10;;
20449;SDS011;10384;51.940;8.432;2022-12-18T03:19:11;5.97;;;3.00;;
20449;SDS011;10384;51.940;8.432;2022-12-18T03:21:40;5.70;;;3.40;;
20449;SDS011;10384;51.940;8.432;2022-12-18T03:24:08;3.60;;;2.30;;
20449;SDS011;10384;51.940;8.432;2022-12-18T03:26:35;4.77;;;2.30;;
20449;SDS011;10384;51.940;8.432;2022-12-18T03:29:38;3.13;;;2.33;;
20449;SDS011;10384;51.940;8.432;2022-12-18T03:31:56;5.47;;;2.53;;
20449;SDS011;10384;51.940;8.432;2022-12-18T03:34:29;5.47;;;3.00;;
20449;SDS011;10384;51.940;8.432;2022-12-18T03:36:56;6.23;;;3.00;;
20449;SDS011;10384;51.940;8.432;2022-12-18T03:39:22;9.67;;;3.27;;
20449;SDS011;10384;51.940;8.432;2022-12-18T03:42:03;14.10;;;3.13;;
20449;SDS011;10384;51.940;8.432;2022-12-18T03:47:32;7.73;;;2.07;;
20449;SDS011;10384;51.940;8.432;2022-12-18T03:50:10;7.30;;;2.80;;
20449;SDS011;10384;51.940;8.432;2022-12-18T03:55:17;5.03;;;3.33;;
20449;SDS011;10384;51.940;8.432;2022-12-18T03:57:43;5.93;;;2.67;;
20449;SDS011;10384;51.940;8.432;2022-12-18T04:00:13;7.43;;;2.93;;
20449;SDS011;10384;51.940;8.432;2022-12-18T04:02:44;6.97;;;2.73;;
20449;SDS011;10384;51.940;8.432;2022-12-18T04:05:11;5.10;;;2.57;;
20449;SDS011;10384;51.940;8.432;2022-12-18T04:07:38;10.57;;;2.63;;
20449;SDS011;10384;51.940;8.432;2022-12-18T04:10:05;6.53;;;2.93;;
20449;SDS011;10384;51.940;8.432;2022-12-18T04:12:32;6.23;;;2.40;;
20449;SDS011;10384;51.940;8.432;2022-12-18T04:14:58;6.47;;;2.50;;
20449;SDS011;10384;51.940;8.432;2022-12-18T04:17:24;5.33;;;2.40;;
20449;SDS011;10384;51.940;8.432;2022-12-18T04:19:50;6.40;;;2.90;;
20449;SDS011;10384;51.940;8.432;2022-12-18T04:22:16;7.40;;;2.70;;
20449;SDS011;10384;51.940;8.432;2022-12-18T04:24:42;3.17;;;2.10;;
20449;SDS011;10384;51.940;8.432;2022-12-18T04:27:08;5.37;;;2.33;;
20449;SDS011;10384;51.940;8.432;2022-12-18T04:29:34;4.77;;;2.33;;
20449;SDS011;10384;51.940;8.432;2022-12-18T04:32:00;4.30;;;2.40;;
20449;SDS011;10384;51.940;8.432;2022-12-18T04:34:26;5.73;;;2.07;;
20449;SDS011;10384;51.940;8.432;2022-12-18T04:36:52;10.13;;;2.57;;
20449;SDS011;10384;51.940;8.432;2022-12-18T04:39:18;7.10;;;2.77;;
20449;SDS011;10384;51.940;8.432;2022-12-18T04:41:44;4.03;;;2.27;;
20449;SDS011;10384;51.940;8.432;2022-12-18T04:44:10;3.57;;;1.40;;
20449;SDS011;10384;51.940;8.432;2022-12-18T04:46:36;4.37;;;2.33;;
20449;SDS011;10384;51.940;8.432;2022-12-18T04:49:02;6.20;;;1.70;;
20449;SDS011;10384;51.940;8.432;2022-12-18T04:51:28;5.40;;;2.50;;
20449;SDS011;10384;51.940;8.432;2022-12-18T04:53:54;5.67;;;2.30;;
20449;SDS011;10384;51.940;8.432;2022-12-18T04:56:20;15.77;;;3.03;;
20449;SDS011;10384;51.940;8.432;2022-12-18T04:58:47;4.77;;;2.50;;
20449;SDS011;10384;51.940;8.432;2022-12-18T05:01:13;6.50;;;2.03;;
20449;SDS011;10384;51.940;8.432;2022-12-18T05:03:39;5.50;;;1.93;;
20449;SDS011;10384;51.940;8.432;2022-12-18T05:06:05;4.30;;;1.87;;
20449;SDS011;10384;51.940;8.432;2022-12-18T05:08:32;3.60;;;1.73;;
20449;SDS011;10384;51.940;8.432;2022-12-18T05:11:01;5.93;;;2.80;;
20449;SDS011;10384;51.940;8.432;2022-12-18T05:13:28;7.57;;;2.37;;
20449;SDS011;10384;51.940;8.432;2022-12-18T05:15:54;10.77;;;2.90;;
20449;SDS011;10384;51.940;8.432;2022-12-18T05:18:21;5.50;;;2.37;;
20449;SDS011;10384;51.940;8.432;2022-12-18T05:20:47;3.37;;;2.00;;
20449;SDS011;10384;51.940;8.432;2022-12-18T05:23:13;4.57;;;2.23;;
20449;SDS011;10384;51.940;8.432;2022-12-18T05:25:38;5.47;;;2.07;;
20449;SDS011;10384;51.940;8.432;2022-12-18T05:28:04;2.10;;;1.73;;
20449;SDS011;10384;51.940;8.432;2022-12-18T05:30:30;6.40;;;1.90;;
20449;SDS011;10384;51.940;8.432;2022-12-18T05:32:56;6.07;;;3.20;;
20449;SDS011;10384;51.940;8.432;2022-12-18T05:35:22;3.63;;;2.00;;
20449;SDS011;10384;51.940;8.432;2022-12-18T05:37:48;4.13;;;1.87;;
20449;SDS011;10384;51.940;8.432;2022-12-18T05:40:14;3.23;;;1.73;;
20449;SDS011;10384;51.940;8.432;2022-12-18T05:42:40;10.50;;;3.20;;
20449;SDS011;10384;51.940;8.432;2022-12-18T05:45:06;5.50;;;2.03;;
20449;SDS011;10384;51.940;8.432;2022-12-18T05:47:32;7.03;;;2.27;;
20449;SDS011;10384;51.940;8.432;2022-12-18T05:49:58;4.80;;;2.40;;
20449;SDS011;10384;51.940;8.432;2022-12-18T05:52:24;4.87;;;2.40;;
20449;SDS011;10384;51.940;8.432;2022-12-18T05:54:50;3.00;;;1.80;;
20449;SDS011;10384;51.940;8.432;2022-12-18T05:57:16;4.67;;;2.10;;
20449;SDS011;10384;51.940;8.432;2022-12-18T05:59:42;6.27;;;2.87;;
20449;SDS011;10384;51.940;8.432;2022-12-18T06:02:08;7.10;;;2.60;;
20449;SDS011;10384;51.940;8.432;2022-12-18T06:04:34;5.40;;;2.20;;
20449;SDS011;10384;51.940;8.432;2022-12-18T06:07:03;3.73;;;1.80;;
20449;SDS011;10384;51.940;8.432;2022-12-18T06:09:29;3.63;;;2.00;;
20449;SDS011;10384;51.940;8.432;2022-12-18T06:11:55;6.90;;;2.37;;
20449;SDS011;10384;51.940;8.432;2022-12-18T06:14:21;4.03;;;2.07;;
20449;SDS011;10384;51.940;8.432;2022-12-18T06:16:47;5.47;;;2.50;;
20449;SDS011;10384;51.940;8.432;2022-12-18T06:19:16;4.43;;;2.33;;
20449;SDS011;10384;51.940;8.432;2022-12-18T06:21:43;3.77;;;2.13;;
20449;SDS011;10384;51.940;8.432;2022-12-18T06:24:09;4.37;;;2.27;;
20449;SDS011;10384;51.940;8.432;2022-12-18T06:26:37;13.40;;;3.23;;
20449;SDS011;10384;51.940;8.432;2022-12-18T06:29:03;10.50;;;2.97;;
20449;SDS011;10384;51.940;8.432;2022-12-18T06:31:29;8.17;;;3.00;;
20449;SDS011;10384;51.940;8.432;2022-12-18T06:33:55;3.37;;;1.80;;
20449;SDS011;10384;51.940;8.432;2022-12-18T06:36:21;5.97;;;2.47;;
20449;SDS011;10384;51.940;8.432;2022-12-18T06:38:47;10.30;;;3.10;;
20449;SDS011;10384;51.940;8.432;2022-12-18T06:41:15;5.13;;;2.50;;
20449;SDS011;10384;51.940;8.432;2022-12-18T06:43:41;8.30;;;3.17;;
20449;SDS011;10384;51.940;8.432;2022-12-18T06:46:08;4.93;;;2.40;;
20449;SDS011;10384;51.940;8.432;2022-12-18T06:48:34;7.60;;;3.00;;
20449;SDS011;10384;51.940;8.432;2022-12-18T06:51:00;7.47;;;3.03;;
20449;SDS011;10384;51.940;8.432;2022-12-18T06:53:26;7.50;;;2.57;;
20449;SDS011;10384;51.940;8.432;2022-12-18T06:55:52;7.23;;;3.13;;
20449;SDS011;10384;51.940;8.432;2022-12-18T06:58:19;8.00;;;3.23;;
20449;SDS011;10384;51.940;8.432;2022-12-18T07:00:45;6.27;;;2.57;;
20449;SDS011;10384;51.940;8.432;2022-12-18T07:03:11;6.70;;;3.17;;
20449;SDS011;10384;51.940;8.432;2022-12-18T07:05:40;6.10;;;3.30;;
20449;SDS011;10384;51.940;8.432;2022-12-18T07:08:06;5.17;;;3.17;;
20449;SDS011;10384;51.940;8.432;2022-12-18T07:10:42;4.30;;;2.90;;
20449;SDS011;10384;51.940;8.432;2022-12-18T07:13:08;4.33;;;2.13;;
20449;SDS011;10384;51.940;8.432;2022-12-18T07:15:34;6.17;;;2.50;;
20449;SDS011;10384;51.940;8.432;2022-12-18T07:18:00;7.10;;;3.27;;
20449;SDS011;10384;51.940;8.432;2022-12-18T07:20:26;6.80;;;3.20;;
20449;SDS011;10384;51.940;8.432;2022-12-18T07:22:52;9.37;;;3.63;;
20449;SDS011;10384;51.940;8.432;2022-12-18T07:25:18;8.27;;;3.50;;
20449;SDS011;10384;51.940;8.432;2022-12-18T07:27:44;7.40;;;3.87;;
20449;SDS011;10384;51.940;8.432;2022-12-18T07:30:10;5.37;;;3.03;;
20449;SDS011;10384;51.940;8.432;2022-12-18T07:32:36;5.47;;;2.60;;
20449;SDS011;10384;51.940;8.432;2022-12-18T07:35:02;3.97;;;2.50;;
20449;SDS011;10384;51.940;8.432;2022-12-18T07:37:28;12.17;;;3.13;;
20449;SDS011;10384;51.940;8.432;2022-12-18T07:39:54;4.93;;;3.00;;
20449;SDS011;10384;51.940;8.432;2022-12-18T07:42:20;9.60;;;3.50;;
20449;SDS011;10384;51.940;8.432;2022-12-18T07:44:55;10.20;;;3.97;;
20449;SDS011;10384;51.940;8.432;2022-12-18T07:47:21;11.00;;;3.70;;
20449;SDS011;10384;51.940;8.432;2022-12-18T07:49:47;5.53;;;3.17;;
20449;SDS011;10384;51.940;8.432;2022-12-18T07:52:13;8.13;;;3.63;;
20449;SDS011;10384;51.940;8.432;2022-12-18T07:54:39;11.10;;;3.90;;
20449;SDS011;10384;51.940;8.432;2022-12-18T07:57:06;6.77;;;2.90;;
20449;SDS011;10384;51.940;8.432;2022-12-18T07:59:32;9.90;;;3.57;;
20449;SDS011;10384;51.940;8.432;2022-12-18T08:01:58;8.30;;;3.47;;
20449;SDS011;10384;51.940;8.432;2022-12-18T08:04:24;8.33;;;3.53;;
20449;SDS011;10384;51.940;8.432;2022-12-18T08:06:50;6.47;;;3.10;;
20449;SDS011;10384;51.940;8.432;2022-12-18T08:09:16;9.77;;;3.23;;
20449;SDS011;10384;51.940;8.432;2022-12-18T08:11:43;6.87;;;3.67;;
20449;SDS011;10384;51.940;8.432;2022-12-18T08:14:09;9.53;;;3.83;;
20449;SDS011;10384;51.940;8.432;2022-12-18T08:16:35;6.90;;;3.00;;
20449;SDS011;10384;51.940;8.432;2022-12-18T08:19:01;10.90;;;3.97;;
20449;SDS011;10384;51.940;8.432;2022-12-18T08:21:28;13.67;;;4.13;;
20449;SDS011;10384;51.940;8.432;2022-12-18T08:23:56;7.30;;;3.17;;
20449;SDS011;10384;51.940;8.432;2022-12-18T08:26:22;8.70;;;3.97;;
20449;SDS011;10384;51.940;8.432;2022-12-18T08:28:49;6.27;;;3.30;;
20449;SDS011;10384;51.940;8.432;2022-12-18T08:31:15;12.30;;;3.80;;
20449;SDS011;10384;51.940;8.432;2022-12-18T08:33:41;5.70;;;3.30;;
20449;SDS011;10384;51.940;8.432;2022-12-18T08:36:08;5.93;;;2.67;;
20449;SDS011;10384;51.940;8.432;2022-12-18T08:38:34;9.03;;;4.30;;
20449;SDS011;10384;51.940;8.432;2022-12-18T08:41:01;10.87;;;4.10;;
20449;SDS011;10384;51.940;8.432;2022-12-18T08:43:27;9.33;;;4.13;;
20449;SDS011;10384;51.940;8.432;2022-12-18T08:46:15;14.37;;;5.70;;
20449;SDS011;10384;51.940;8.432;2022-12-18T08:48:41;9.60;;;4.43;;
20449;SDS011;10384;51.940;8.432;2022-12-18T08:51:07;7.43;;;4.47;;
20449;SDS011;10384;51.940;8.432;2022-12-18T08:53:34;8.30;;;4.13;;
20449;SDS011;10384;51.940;8.432;2022-12-18T08:56:00;9.00;;;3.90;;
20449;SDS011;10384;51.940;8.432;2022-12-18T08:58:26;5.90;;;3.13;;
20449;SDS011;10384;51.940;8.432;2022-12-18T09:00:52;8.60;;;3.10;;
20449;SDS011;10384;51.940;8.432;2022-12-18T09:03:18;7.27;;;3.70;;
20449;SDS011;10384;51.940;8.432;2022-12-18T09:05:48;10.40;;;3.90;;
20449;SDS011;10384;51.940;8.432;2022-12-18T09:08:14;7.73;;;3.73;;
20449;SDS011;10384;51.940;8.432;2022-12-18T09:10:44;13.30;;;3.87;;
20449;SDS011;10384;51.940;8.432;2022-12-18T09:13:10;12.40;;;4.57;;
20449;SDS011;10384;51.940;8.432;2022-12-18T09:15:40;8.07;;;4.00;;
20449;SDS011;10384;51.940;8.432;2022-12-18T09:18:06;10.47;;;4.17;;
20449;SDS011;10384;51.940;8.432;2022-12-18T09:20:32;12.13;;;4.57;;
20449;SDS011;10384;51.940;8.432;2022-12-18T09:22:58;15.57;;;4.50;;
20449;SDS011;10384;51.940;8.432;2022-12-18T09:25:24;8.50;;;4.53;;
20449;SDS011;10384;51.940;8.432;2022-12-18T09:27:52;9.40;;;4.03;;
20449;SDS011;10384;51.940;8.432;2022-12-18T09:30:18;12.67;;;4.83;;
20449;SDS011;10384;51.940;8.432;2022-12-18T09:32:44;9.77;;;4.67;;
20449;SDS011;10384;51.940;8.432;2022-12-18T09:35:10;7.07;;;3.70;;
20449;SDS011;10384;51.940;8.432;2022-12-18T09:37:36;14.40;;;4.47;;
20449;SDS011;10384;51.940;8.432;2022-12-18T09:40:02;13.57;;;6.07;;
20449;SDS011;10384;51.940;8.432;2022-12-18T09:42:28;10.90;;;4.63;;
20449;SDS011;10384;51.940;8.432;2022-12-18T09:44:54;14.13;;;5.00;;
20449;SDS011;10384;51.940;8.432;2022-12-18T09:47:25;12.60;;;5.27;;
20449;SDS011;10384;51.940;8.432;2022-12-18T09:49:55;13.07;;;6.00;;
20449;SDS011;10384;51.940;8.432;2022-12-18T09:52:26;15.13;;;5.70;;
20449;SDS011;10384;51.940;8.432;2022-12-18T09:57:35;8.93;;;4.90;;
20449;SDS011;10384;51.940;8.432;2022-12-18T10:00:08;11.27;;;5.07;;
20449;SDS011;10384;51.940;8.432;2022-12-18T10:02:39;15.43;;;4.97;;
20449;SDS011;10384;51.940;8.432;2022-12-18T10:05:12;13.30;;;4.80;;
20449;SDS011;10384;51.940;8.432;2022-12-18T10:10:32;14.50;;;6.23;;
20449;SDS011;10384;51.940;8.432;2022-12-18T10:13:06;14.87;;;6.13;;
20449;SDS011;10384;51.940;8.432;2022-12-18T10:15:40;13.03;;;6.00;;
20449;SDS011;10384;51.940;8.432;2022-12-18T10:20:52;13.97;;;5.53;;
20449;SDS011;10384;51.940;8.432;2022-12-18T10:23:32;10.63;;;5.07;;
20449;SDS011;10384;51.940;8.432;2022-12-18T10:28:25;12.93;;;4.87;;
20449;SDS011;10384;51.940;8.432;2022-12-18T10:30:52;8.80;;;3.87;;
20449;SDS011;10384;51.940;8.432;2022-12-18T10:33:19;10.57;;;4.80;;
20449;SDS011;10384;51.940;8.432;2022-12-18T10:35:46;13.97;;;6.03;;
20449;SDS011;10384;51.940;8.432;2022-12-18T10:40:52;8.77;;;3.90;;
20449;SDS011;10384;51.940;8.432;2022-12-18T10:43:20;10.53;;;4.30;;
20449;SDS011;10384;51.940;8.432;2022-12-18T10:48:25;11.43;;;4.63;;
20449;SDS011;10384;51.940;8.432;2022-12-18T10:50:51;9.23;;;4.27;;
20449;SDS011;10384;51.940;8.432;2022-12-18T10:53:36;10.33;;;4.30;;
20449;SDS011;10384;51.940;8.432;2022-12-18T10:56:03;8.87;;;3.97;;
20449;SDS011;10384;51.940;8.432;2022-12-18T10:58:31;7.53;;;3.63;;
20449;SDS011;10384;51.940;8.432;2022-12-18T11:01:13;11.30;;;4.30;;
20449;SDS011;10384;51.940;8.432;2022-12-18T11:03:58;10.90;;;4.30;;
20449;SDS011;10384;51.940;8.432;2022-12-18T11:06:24;14.60;;;4.50;;
20449;SDS011;10384;51.940;8.432;2022-12-18T11:09:01;12.27;;;4.40;;
20449;SDS011;10384;51.940;8.432;2022-12-18T11:11:28;5.67;;;3.07;;
20449;SDS011;10384;51.940;8.432;2022-12-18T11:14:04;9.93;;;4.50;;
20449;SDS011;10384;51.940;8.432;2022-12-18T11:16:37;10.90;;;3.90;;
20449;SDS011;10384;51.940;8.432;2022-12-18T11:21:47;9.33;;;3.97;;
20449;SDS011;10384;51.940;8.432;2022-12-18T11:24:20;10.63;;;4.27;;
20449;SDS011;10384;51.940;8.432;2022-12-18T11:26:50;7.20;;;3.60;;
20449;SDS011;10384;51.940;8.432;2022-12-18T11:29:17;8.07;;;3.50;;
20449;SDS011;10384;51.940;8.432;2022-12-18T11:31:43;9.23;;;4.00;;
20449;SDS011;10384;51.940;8.432;2022-12-18T11:34:14;12.03;;;4.10;;
20449;SDS011;10384;51.940;8.432;2022-12-18T11:36:44;9.20;;;3.73;;
20449;SDS011;10384;51.940;8.432;2022-12-18T11:41:56;6.77;;;3.60;;
20449;SDS011;10384;51.940;8.432;2022-12-18T11:44:49;7.17;;;3.43;;
20449;SDS011;10384;51.940;8.432;2022-12-18T11:47:19;7.97;;;3.37;;
20449;SDS011;10384;51.940;8.432;2022-12-18T11:49:47;10.90;;;3.70;;
20449;SDS011;10384;51.940;8.432;2022-12-18T11:52:16;8.50;;;3.43;;
20449;SDS011;10384;51.940;8.432;2022-12-18T11:54:43;7.27;;;3.53;;
20449;SDS011;10384;51.940;8.432;2022-12-18T11:57:19;7.00;;;2.70;;
20449;SDS011;10384;51.940;8.432;2022-12-18T11:59:53;7.73;;;3.33;;
20449;SDS011;10384;51.940;8.432;2022-12-18T12:05:13;11.77;;;3.93;;
20449;SDS011;10384;51.940;8.432;2022-12-18T12:13:10;8.47;;;3.60;;
20449;SDS011;10384;51.940;8.432;2022-12-18T12:30:57;15.60;;;10.37;;
20449;SDS011;10384;51.940;8.432;2022-12-18T12:33:28;9.50;;;3.67;;
20449;SDS011;10384;51.940;8.432;2022-12-18T12:38:31;8.80;;;3.30;;
20449;SDS011;10384;51.940;8.432;2022-12-18T12:41:00;8.50;;;3.10;;
20449;SDS011;10384;51.940;8.432;2022-12-18T12:43:33;8.63;;;3.63;;
20449;SDS011;10384;51.940;8.432;2022-12-18T12:48:35;6.47;;;2.90;;
20449;SDS011;10384;51.940;8.432;2022-12-18T12:51:03;8.83;;;2.90;;
20449;SDS011;10384;51.940;8.432;2022-12-18T12:53:31;8.80;;;3.53;;
20449;SDS011;10384;51.940;8.432;2022-12-18T12:55:58;17.73;;;6.17;;
20449;SDS011;10384;51.940;8.432;2022-12-18T12:58:27;11.13;;;4.67;;
20449;SDS011;10384;51.940;8.432;2022-12-18T13:01:02;8.73;;;4.40;;
20449;SDS011;10384;51.940;8.432;2022-12-18T13:03:36;7.83;;;4.20;;
20449;SDS011;10384;51.940;8.432;2022-12-18T13:06:16;10.47;;;4.33;;
20449;SDS011;10384;51.940;8.432;2022-12-18T13:08:54;11.03;;;4.53;;
20449;SDS011;10384;51.940;8.432;2022-12-18T13:11:28;7.93;;;3.60;;
20449;SDS011;10384;51.940;8.432;2022-12-18T13:14:20;9.07;;;3.17;;
20449;SDS011;10384;51.940;8.432;2022-12-18T13:16:46;7.97;;;3.17;;
20449;SDS011;10384;51.940;8.432;2022-12-18T13:19:20;5.57;;;3.10;;
20449;SDS011;10384;51.940;8.432;2022-12-18T13:21:52;5.90;;;3.20;;
20449;SDS011;10384;51.940;8.432;2022-12-18T13:24:28;7.87;;;3.20;;
20449;SDS011;10384;51.940;8.432;2022-12-18T13:26:56;8.80;;;3.30;;
20449;SDS011;10384;51.940;8.432;2022-12-18T13:29:40;9.90;;;3.07;;
20449;SDS011;10384;51.940;8.432;2022-12-18T13:32:22;5.10;;;2.80;;
20449;SDS011;10384;51.940;8.432;2022-12-18T13:34:48;7.60;;;2.83;;
20449;SDS011;10384;51.940;8.432;2022-12-18T13:37:39;6.70;;;2.87;;
20449;SDS011;10384;51.940;8.432;2022-12-18T13:42:50;10.20;;;3.60;;
20449;SDS011;10384;51.940;8.432;2022-12-18T13:45:35;8.77;;;3.00;;
20449;SDS011;10384;51.940;8.432;2022-12-18T13:48:03;5.70;;;3.10;;
20449;SDS011;10384;51.940;8.432;2022-12-18T13:50:29;7.33;;;3.50;;
20449;SDS011;10384;51.940;8.432;2022-12-18T13:52:55;8.33;;;3.70;;
20449;SDS011;10384;51.940;8.432;2022-12-18T13:55:21;7.63;;;3.00;;
20449;SDS011;10384;51.940;8.432;2022-12-18T13:57:47;9.03;;;3.17;;
20449;SDS011;10384;51.940;8.432;2022-12-18T14:02:46;6.47;;;2.60;;
20449;SDS011;10384;51.940;8.432;2022-12-18T14:05:21;7.40;;;3.27;;
20449;SDS011;10384;51.940;8.432;2022-12-18T14:07:48;6.47;;;2.90;;
20449;SDS011;10384;51.940;8.432;2022-12-18T14:10:14;8.43;;;2.83;;
20449;SDS011;10384;51.940;8.432;2022-12-18T14:12:44;7.33;;;3.20;;
20449;SDS011;10384;51.940;8.432;2022-12-18T14:17:52;13.33;;;4.27;;
20449;SDS011;10384;51.940;8.432;2022-12-18T14:20:18;6.70;;;3.77;;
20449;SDS011;10384;51.940;8.432;2022-12-18T14:22:45;5.97;;;3.03;;
20449;SDS011;10384;51.940;8.432;2022-12-18T14:27:42;7.70;;;4.23;;
20449;SDS011;10384;51.940;8.432;2022-12-18T14:30:24;9.97;;;4.13;;
20449;SDS011;10384;51.940;8.432;2022-12-18T14:33:51;7.13;;;4.00;;
20449;SDS011;10384;51.940;8.432;2022-12-18T14:40:47;6.50;;;2.90;;
20449;SDS011;10384;51.940;8.432;2022-12-18T14:43:13;6.80;;;3.27;;
20449;SDS011;10384;51.940;8.432;2022-12-18T14:45:41;8.80;;;3.03;;
20449;SDS011;10384;51.940;8.432;2022-12-18T14:48:08;8.00;;;3.50;;
20449;SDS011;10384;51.940;8.432;2022-12-18T14:50:34;6.90;;;3.50;;
20449;SDS011;10384;51.940;8.432;2022-12-18T14:53:01;7.60;;;3.80;;
20449;SDS011;10384;51.940;8.432;2022-12-18T14:55:27;9.03;;;3.97;;
20449;SDS011;10384;51.940;8.432;2022-12-18T14:57:53;10.77;;;4.83;;
20449;SDS011;10384;51.940;8.432;2022-12-18T15:00:21;7.90;;;3.90;;
20449;SDS011;10384;51.940;8.432;2022-12-18T15:02:49;9.83;;;3.70;;
20449;SDS011;10384;51.940;8.432;2022-12-18T15:05:17;11.27;;;3.97;;
20449;SDS011;10384;51.940;8.432;2022-12-18T15:07:47;7.50;;;3.87;;
20449;SDS011;10384;51.940;8.432;2022-12-18T15:10:15;15.40;;;4.30;;
20449;SDS011;10384;51.940;8.432;2022-12-18T15:12:42;9.30;;;4.70;;
20449;SDS011;10384;51.940;8.432;2022-12-18T15:20:32;8.50;;;3.10;;
20449;SDS011;10384;51.940;8.432;2022-12-18T15:22:59;7.03;;;3.63;;
20449;SDS011;10384;51.940;8.432;2022-12-18T15:25:34;7.93;;;3.87;;
20449;SDS011;10384;51.940;8.432;2022-12-18T15:28:02;8.67;;;3.53;;
20449;SDS011;10384;51.940;8.432;2022-12-18T15:30:28;9.77;;;4.00;;
20449;SDS011;10384;51.940;8.432;2022-12-18T15:35:39;9.20;;;3.73;;
20449;SDS011;10384;51.940;8.432;2022-12-18T15:38:06;9.63;;;4.80;;
20449;SDS011;10384;51.940;8.432;2022-12-18T15:40:32;10.80;;;4.50;;
20449;SDS011;10384;51.940;8.432;2022-12-18T15:42:58;9.73;;;4.50;;
20449;SDS011;10384;51.940;8.432;2022-12-18T15:45:43;15.83;;;4.43;;
20449;SDS011;10384;51.940;8.432;2022-12-18T15:48:20;7.20;;;3.63;;
20449;SDS011;10384;51.940;8.432;2022-12-18T15:50:46;9.40;;;3.70;;
20449;SDS011;10384;51.940;8.432;2022-12-18T15:53:12;10.77;;;4.40;;
20449;SDS011;10384;51.940;8.432;2022-12-18T15:55:38;8.87;;;4.40;;
20449;SDS011;10384;51.940;8.432;2022-12-18T15:58:23;9.00;;;4.17;;
20449;SDS011;10384;51.940;8.432;2022-12-18T16:00:49;11.23;;;4.67;;
20449;SDS011;10384;51.940;8.432;2022-12-18T16:03:15;10.63;;;4.73;;
20449;SDS011;10384;51.940;8.432;2022-12-18T16:05:41;11.87;;;4.67;;
20449;SDS011;10384;51.940;8.432;2022-12-18T16:08:07;11.47;;;4.20;;
20449;SDS011;10384;51.940;8.432;2022-12-18T16:10:33;8.23;;;4.57;;
20449;SDS011;10384;51.940;8.432;2022-12-18T16:13:00;10.70;;;4.33;;
20449;SDS011;10384;51.940;8.432;2022-12-18T16:15:26;12.87;;;5.60;;
20449;SDS011;10384;51.940;8.432;2022-12-18T16:17:52;9.60;;;5.10;;
20449;SDS011;10384;51.940;8.432;2022-12-18T16:20:19;13.60;;;5.30;;
20449;SDS011;10384;51.940;8.432;2022-12-18T16:22:46;13.37;;;5.07;;
20449;SDS011;10384;51.940;8.432;2022-12-18T16:25:22;10.97;;;4.33;;